Time;durP1;ratioP1;P1;durP2;ratioP2;P2;SDS_P1;SDS_P2;PMS_P1;PMS_P2;Temp;Humidity;BMP_temperature;BMP_pressure;BME280_temperature;BME280_humidity;BME280_pressure;Samples;Min_cycle;Max_cycle;Signal;HPM_P1;HPM_P2
2021/04/05 00:00:41;;;;;;;9.40;2.50;;;8.00;99.90;;;;;;4940975;29;20023;-91
2021/04/05 00:03:08;;;;;;;7.43;2.53;;;8.00;99.90;;;;;;4958741;28;20381;-92
2021/04/05 00:05:37;;;;;;;6.43;2.70;;;7.90;99.90;;;;;;4941561;29;20091;-92
2021/04/05 00:08:04;;;;;;;8.57;2.00;;;7.90;99.90;;;;;;4941908;29;20035;-92
2021/04/05 00:10:50;;;;;;;9.85;2.53;;;7.90;99.90;;;;;;4941771;29;20031;-93
2021/04/05 00:13:21;;;;;;;10.60;2.35;;;7.90;99.90;;;;;;4942017;29;20386;-93
2021/04/05 00:15:47;;;;;;;6.20;2.28;;;7.90;99.90;;;;;;4942509;29;20079;-94
2021/04/05 00:18:15;;;;;;;6.68;1.52;;;7.90;99.90;;;;;;4943343;29;20069;-92
2021/04/05 00:20:52;;;;;;;10.23;2.72;;;7.90;99.90;;;;;;4943005;29;20023;-92
2021/04/05 00:23:18;;;;;;;10.00;2.78;;;7.90;99.90;;;;;;4941970;29;20081;-92
2021/04/05 00:25:43;;;;;;;13.20;2.65;;;7.90;99.90;;;;;;4940557;29;20039;-94
2021/04/05 00:28:09;;;;;;;3.50;1.88;;;7.90;99.90;;;;;;4940352;29;20031;-92
2021/04/05 00:30:37;;;;;;;11.45;2.03;;;7.90;99.90;;;;;;4941776;29;20043;-92
2021/04/05 00:33:04;;;;;;;9.07;2.38;;;7.90;99.90;;;;;;4942142;29;20023;-93
2021/04/05 00:35:35;;;;;;;14.23;2.70;;;7.80;99.90;;;;;;4939632;29;20114;-94
2021/04/05 00:38:06;;;;;;;3.67;1.23;;;7.80;99.90;;;;;;4942615;29;20023;-93
2021/04/05 00:40:55;;;;;;;10.68;2.38;;;7.70;99.90;;;;;;4941618;29;20059;-93
2021/04/05 00:43:21;;;;;;;8.82;1.95;;;7.70;99.90;;;;;;4948935;29;20066;-93
2021/04/05 00:45:47;;;;;;;9.43;2.72;;;7.70;99.90;;;;;;4957579;29;20031;-93
2021/04/05 00:48:15;;;;;;;5.65;1.55;;;7.70;99.90;;;;;;4958571;29;20027;-94
2021/04/05 00:50:53;;;;;;;6.95;1.95;;;7.70;99.90;;;;;;4957417;29;20053;-93
2021/04/05 00:53:25;;;;;;;4.78;1.30;;;7.60;99.90;;;;;;4939917;29;20170;-93
2021/04/05 00:55:51;;;;;;;6.97;1.33;;;7.60;99.90;;;;;;4957022;29;20024;-94
2021/04/05 00:58:18;;;;;;;2.88;0.88;;;7.60;99.90;;;;;;4939789;29;20050;-91
2021/04/05 01:00:51;;;;;;;11.43;1.80;;;7.50;99.90;;;;;;4939274;29;20444;-91
2021/04/05 01:03:21;;;;;;;7.10;1.70;;;7.40;99.90;;;;;;4938922;29;20031;-91
2021/04/05 01:05:52;;;;;;;15.48;2.35;;;7.20;99.90;;;;;;4955450;29;20058;-93
2021/04/05 01:08:18;;;;;;;11.73;2.92;;;7.10;99.90;;;;;;4938896;29;20459;-90
2021/04/05 01:10:46;;;;;;;26.17;3.85;;;6.90;99.90;;;;;;4938785;29;20027;-92
2021/04/05 01:13:13;;;;;;;16.73;2.70;;;6.80;99.90;;;;;;4938897;29;20039;-92
2021/04/05 01:15:39;;;;;;;20.45;2.97;;;6.70;99.90;;;;;;4940251;29;20485;-91
2021/04/05 01:18:07;;;;;;;16.90;2.53;;;6.70;99.90;;;;;;4943574;29;20027;-89
2021/04/05 01:20:33;;;;;;;22.40;3.60;;;6.60;99.90;;;;;;4943380;29;20023;-91
2021/04/05 01:23:00;;;;;;;24.52;3.67;;;6.60;99.90;;;;;;4943001;29;20027;-91
2021/04/05 01:25:27;;;;;;;28.00;5.13;;;6.50;99.90;;;;;;4960238;29;20186;-91
2021/04/05 01:27:54;;;;;;;25.67;4.07;;;6.40;99.90;;;;;;4943061;29;20034;-90
2021/04/05 01:30:33;;;;;;;22.75;3.80;;;6.40;99.90;;;;;;4960314;29;20058;-90
2021/04/05 01:33:22;;;;;;;30.00;4.88;;;6.40;99.90;;;;;;4942853;29;20473;-90
2021/04/05 01:35:49;;;;;;;18.58;3.30;;;6.40;99.90;;;;;;4931338;29;20060;-90
2021/04/05 01:38:24;;;;;;;25.98;4.03;;;6.30;99.90;;;;;;4942618;29;20027;-91
2021/04/05 01:40:57;;;;;;;31.10;6.80;;;6.30;99.90;;;;;;4960172;29;20066;-89
2021/04/05 01:43:23;;;;;;;29.77;4.18;;;6.30;99.90;;;;;;4942905;29;20163;-90
2021/04/05 01:45:48;;;;;;;31.02;4.78;;;6.20;99.90;;;;;;4959951;29;20160;-90
2021/04/05 01:48:14;;;;;;;28.90;4.70;;;6.20;99.90;;;;;;4941999;29;20059;-90
2021/04/05 01:50:41;;;;;;;25.08;3.95;;;6.10;99.90;;;;;;4941820;29;20054;-91
2021/04/05 01:53:08;;;;;;;13.55;3.83;;;6.10;99.90;;;;;;4941636;29;20113;-90
2021/04/05 01:55:34;;;;;;;31.13;6.30;;;6.10;99.90;;;;;;4945591;29;20087;-91
2021/04/05 01:58:01;;;;;;;23.30;4.18;;;6.10;99.90;;;;;;4949264;29;20023;-90
2021/04/05 02:00:29;;;;;;;17.75;4.65;;;6.00;99.90;;;;;;4948386;29;20039;-90
2021/04/05 02:03:03;;;;;;;14.88;3.65;;;6.00;99.90;;;;;;4945685;29;20480;-90
2021/04/05 02:05:29;;;;;;;5.68;2.97;;;6.00;99.90;;;;;;4945015;29;20031;-89
2021/04/05 02:07:55;;;;;;;17.88;3.72;;;5.90;99.90;;;;;;4959667;29;20027;-90
2021/04/05 02:10:26;;;;;;;22.73;4.53;;;5.80;99.90;;;;;;4959503;29;20038;-89
2021/04/05 02:12:53;;;;;;;16.65;4.10;;;5.70;99.90;;;;;;4942009;29;20035;-90
2021/04/05 02:15:21;;;;;;;9.52;2.55;;;5.60;99.90;;;;;;4958203;29;20048;-89
2021/04/05 02:17:46;;;;;;;17.55;3.70;;;5.60;99.90;;;;;;4941854;29;20035;-89
2021/04/05 02:20:15;;;;;;;16.73;4.35;;;5.50;98.30;;;;;;4941570;29;20038;-90
2021/04/05 02:22:46;;;;;;;16.70;3.15;;;5.40;97.40;;;;;;4941495;29;20031;-89
2021/04/05 02:25:17;;;;;;;21.13;4.03;;;5.40;95.80;;;;;;4958116;29;20114;-90
2021/04/05 02:27:43;;;;;;;;;;;5.30;95.50;;;;;;4940609;29;20027;-90
2021/04/05 02:30:10;;;;;;;11.75;2.10;;;5.20;95.60;;;;;;4940525;29;20360;-89
2021/04/05 02:32:39;;;;;;;19.35;3.58;;;5.20;95.00;;;;;;4940895;29;20482;-90
2021/04/05 02:35:05;;;;;;;27.70;3.78;;;5.10;94.80;;;;;;4957898;29;20433;-90
2021/04/05 02:37:31;;;;;;;14.70;3.83;;;5.10;95.00;;;;;;4941210;29;20027;-89
2021/04/05 02:39:57;;;;;;;16.65;2.78;;;5.10;94.70;;;;;;4940857;29;20031;-89
2021/04/05 02:42:23;;;;;;;12.85;2.92;;;5.00;93.90;;;;;;4940916;29;20035;-90
2021/04/05 02:44:49;;;;;;;18.25;3.35;;;4.90;93.70;;;;;;4958524;29;20027;-90
2021/04/05 02:47:16;;;;;;;14.43;3.30;;;4.90;93.60;;;;;;4940557;29;20094;-89
2021/04/05 02:49:44;;;;;;;18.40;4.72;;;4.90;92.90;;;;;;4957545;29;20500;-88
2021/04/05 02:52:10;;;;;;;16.25;3.03;;;4.80;93.00;;;;;;4940403;29;20043;-88
2021/04/05 02:54:35;;;;;;;13.73;3.55;;;4.80;93.40;;;;;;4940594;29;20082;-88
2021/04/05 02:57:01;;;;;;;15.23;3.33;;;4.70;93.60;;;;;;4940355;29;20480;-88
2021/04/05 02:59:27;;;;;;;11.07;3.13;;;4.60;93.60;;;;;;4940260;29;20035;-88
2021/04/05 03:01:54;;;;;;;22.27;3.75;;;4.60;93.90;;;;;;4940473;29;20031;-88
2021/04/05 03:04:21;;;;;;;14.82;2.03;;;4.60;94.10;;;;;;4940263;29;20459;-88
2021/04/05 03:06:49;;;;;;;18.30;3.78;;;4.50;94.00;;;;;;4939929;29;20031;-88
2021/04/05 03:09:15;;;;;;;17.85;3.20;;;4.50;94.10;;;;;;4957504;29;20027;-89
2021/04/05 03:11:43;;;;;;;16.08;3.15;;;4.40;94.10;;;;;;4940075;29;20041;-89
2021/04/05 03:14:10;;;;;;;13.95;4.65;;;4.40;94.30;;;;;;4940152;29;20370;-88
2021/04/05 03:16:38;;;;;;;11.93;2.70;;;4.40;94.30;;;;;;4940109;29;20078;-88
2021/04/05 03:19:05;;;;;;;15.30;3.28;;;4.30;94.10;;;;;;4939881;29;20023;-88
2021/04/05 03:21:31;;;;;;;18.08;3.40;;;4.30;94.30;;;;;;4939903;29;20034;-88
2021/04/05 03:24:01;;;;;;;13.50;2.47;;;4.20;94.40;;;;;;4939929;29;20035;-88
2021/04/05 03:26:27;;;;;;;14.13;3.00;;;4.20;94.50;;;;;;4940277;29;20035;-88
2021/04/05 03:28:53;;;;;;;18.27;3.00;;;4.20;94.70;;;;;;4940507;29;20031;-88
2021/04/05 03:31:21;;;;;;;11.75;2.83;;;4.10;94.90;;;;;;4939648;29;20031;-88
2021/04/05 03:33:51;;;;;;;21.70;2.80;;;4.10;95.00;;;;;;4939578;29;20038;-89
2021/04/05 03:36:22;;;;;;;10.57;2.53;;;4.10;95.10;;;;;;4939664;29;20408;-88
2021/04/05 03:38:48;;;;;;;;;;;4.10;95.00;;;;;;4939785;29;20043;-88
2021/04/05 03:41:26;;;;;;;18.73;3.10;;;4.00;95.10;;;;;;4939747;29;19910;-88
2021/04/05 03:44:00;;;;;;;17.05;3.00;;;4.00;95.10;;;;;;4939579;29;20027;-88
2021/04/05 03:46:33;;;;;;;17.92;3.30;;;4.00;95.20;;;;;;4956454;29;20474;-88
2021/04/05 03:49:22;;;;;;;15.52;3.08;;;3.90;95.30;;;;;;4939454;29;20135;-88
2021/04/05 03:52:16;;;;;;;14.55;4.68;;;3.90;95.50;;;;;;4939656;29;20094;-88
2021/04/05 03:54:49;;;;;;;20.95;2.90;;;3.90;95.70;;;;;;4952455;28;20031;-89
2021/04/05 03:57:19;;;;;;;24.42;3.30;;;3.90;95.80;;;;;;4939394;29;20035;-88
2021/04/05 03:59:49;;;;;;;17.88;3.78;;;3.90;96.10;;;;;;4939162;29;20027;-88
2021/04/05 04:02:18;;;;;;;16.38;3.33;;;3.90;96.30;;;;;;4939235;29;20062;-89
2021/04/05 04:05:37;;;;;;;15.65;3.72;;;3.90;96.40;;;;;;4956122;29;20035;-88
2021/04/05 04:07:48;;;;;;;17.98;2.90;;;3.90;96.50;;;;;;4948218;28;20448;-89
2021/04/05 04:10:16;;;;;;;17.65;2.60;;;3.90;96.60;;;;;;4938930;29;20027;-87
2021/04/05 04:12:46;;;;;;;28.05;3.53;;;3.90;96.70;;;;;;4939123;29;20511;-88
2021/04/05 04:15:13;;;;;;;16.25;2.58;;;3.90;96.70;;;;;;4938738;29;20058;-88
2021/04/05 04:17:39;;;;;;;12.23;2.38;;;3.90;96.70;;;;;;4939088;29;20123;-88
2021/04/05 04:20:11;;;;;;;16.17;2.65;;;3.90;96.70;;;;;;4938922;29;20058;-88
2021/04/05 04:22:37;;;;;;;14.52;3.28;;;3.90;96.70;;;;;;4939323;29;20035;-89
2021/04/05 04:25:05;;;;;;;19.25;2.58;;;3.90;96.80;;;;;;4956224;29;20498;-88
2021/04/05 04:27:30;;;;;;;19.95;3.78;;;4.00;96.80;;;;;;4955950;29;20078;-88
2021/04/05 04:29:57;;;;;;;11.80;2.20;;;4.00;96.80;;;;;;4938816;29;20447;-88
2021/04/05 04:32:24;;;;;;;12.07;2.72;;;4.00;96.80;;;;;;4938645;29;20485;-88
2021/04/05 04:34:49;;;;;;;21.10;2.75;;;4.00;96.80;;;;;;4938947;29;20023;-87
2021/04/05 04:37:15;;;;;;;14.82;2.60;;;4.00;96.90;;;;;;4938771;29;20559;-88
2021/04/05 04:39:41;;;;;;;12.20;2.22;;;4.00;97.00;;;;;;4956042;29;20027;-88
2021/04/05 04:42:08;;;;;;;13.60;3.08;;;4.00;97.10;;;;;;4938616;29;20401;-88
2021/04/05 04:44:34;;;;;;;11.60;2.30;;;4.00;97.10;;;;;;4938794;29;20027;-88
2021/04/05 04:46:59;;;;;;;12.60;2.72;;;3.90;97.10;;;;;;4945867;29;20523;-88
2021/04/05 04:49:25;;;;;;;20.88;2.72;;;3.90;97.20;;;;;;4946771;28;20054;-88
2021/04/05 04:51:50;;;;;;;16.58;2.17;;;3.90;97.20;;;;;;4950483;29;20112;-88
2021/04/05 04:54:16;;;;;;;15.15;2.53;;;3.80;97.30;;;;;;4949588;29;20054;-87
2021/04/05 04:56:42;;;;;;;14.55;3.22;;;3.80;97.70;;;;;;4946278;28;20019;-88
2021/04/05 04:59:09;;;;;;;15.13;2.70;;;3.80;97.50;;;;;;4946007;29;20105;-88
2021/04/05 05:01:40;;;;;;;13.07;1.95;;;3.70;97.50;;;;;;4946055;29;20120;-88
2021/04/05 05:04:16;;;;;;;19.77;2.28;;;3.70;97.70;;;;;;4945869;29;20027;-89
2021/04/05 05:06:43;;;;;;;22.60;4.32;;;3.60;97.80;;;;;;4945591;28;20024;-87
2021/04/05 05:09:09;;;;;;;16.02;2.85;;;3.60;97.90;;;;;;4945316;29;20050;-88
2021/04/05 05:11:35;;;;;;;13.60;2.83;;;3.60;98.00;;;;;;4962529;29;20460;-88
2021/04/05 05:14:02;;;;;;;23.00;3.17;;;3.60;98.40;;;;;;4944700;29;20035;-87
2021/04/05 05:16:28;;;;;;;18.92;2.80;;;3.60;98.30;;;;;;4945252;29;20039;-88
2021/04/05 05:18:56;;;;;;;10.38;1.80;;;3.60;98.60;;;;;;4962345;28;20053;-88
2021/04/05 05:21:32;;;;;;;7.85;2.05;;;3.60;98.70;;;;;;4945051;28;20045;-88
2021/04/05 05:24:06;;;;;;;6.88;1.70;;;3.50;98.60;;;;;;4944935;29;20019;-88
2021/04/05 05:26:34;;;;;;;7.43;1.50;;;3.50;98.70;;;;;;4962203;28;20115;-88
2021/04/05 05:29:07;;;;;;;7.90;1.55;;;3.40;98.70;;;;;;4945090;29;20027;-88
2021/04/05 05:31:35;;;;;;;5.07;1.60;;;3.30;98.80;;;;;;4962334;28;20473;-88
2021/04/05 05:34:02;;;;;;;4.63;1.02;;;3.20;99.00;;;;;;4962405;28;20072;-88
2021/04/05 05:36:28;;;;;;;6.10;2.20;;;3.10;98.90;;;;;;4944525;28;20027;-88
2021/04/05 05:38:56;;;;;;;4.07;1.65;;;3.00;99.00;;;;;;4944635;29;20032;-88
2021/04/05 05:41:28;;;;;;;8.27;1.48;;;2.90;99.00;;;;;;4944792;29;20042;-88
2021/04/05 05:44:04;;;;;;;6.70;1.95;;;2.80;99.00;;;;;;4944716;29;20023;-88
2021/04/05 05:46:47;;;;;;;6.75;1.88;;;2.70;99.40;;;;;;4944776;29;20027;-88
2021/04/05 05:49:28;;;;;;;3.65;1.70;;;2.60;99.60;;;;;;4944511;29;20027;-88
2021/04/05 05:51:56;;;;;;;6.30;1.67;;;2.50;99.90;;;;;;4961643;29;20031;-88
2021/04/05 05:54:35;;;;;;;7.95;2.95;;;2.50;99.90;;;;;;4944850;29;20114;-88
2021/04/05 05:57:10;;;;;;;8.20;1.90;;;2.40;99.90;;;;;;4944876;29;20042;-88
2021/04/05 06:00:01;;;;;;;4.95;1.80;;;2.40;99.90;;;;;;4961585;29;20023;-89
2021/04/05 06:02:35;;;;;;;4.95;2.08;;;2.30;99.90;;;;;;4942266;29;20451;-88
2021/04/05 06:05:27;;;;;;;8.32;2.13;;;2.20;99.90;;;;;;4941511;29;20129;-88
2021/04/05 06:08:11;;;;;;;6.22;2.33;;;2.20;99.90;;;;;;4941386;29;20390;-88
2021/04/05 06:11:17;;;;;;;4.30;1.77;;;2.10;99.90;;;;;;4941115;29;20524;-88
2021/04/05 06:14:03;;;;;;;7.63;2.10;;;2.00;99.90;;;;;;4941213;29;20031;-89
2021/04/05 06:16:31;;;;;;;5.18;1.75;;;1.90;99.90;;;;;;4941355;29;20127;-88
2021/04/05 06:19:15;;;;;;;3.30;1.48;;;1.90;99.90;;;;;;4958507;29;20107;-88
2021/04/05 06:21:57;;;;;;;4.55;1.83;;;1.90;99.90;;;;;;4940898;29;20040;-88
2021/04/05 06:24:31;;;;;;;4.28;1.40;;;1.80;99.90;;;;;;4940954;29;20030;-89
2021/04/05 06:27:06;;;;;;;4.35;1.60;;;1.80;99.90;;;;;;4941066;29;20039;-88
2021/04/05 06:30:00;;;;;;;2.05;1.33;;;1.70;99.90;;;;;;4941176;29;20027;-88
2021/04/05 06:32:48;;;;;;;7.50;1.73;;;1.70;99.90;;;;;;4940456;29;20162;-88
2021/04/05 06:35:45;;;;;;;8.10;1.48;;;1.60;99.90;;;;;;4941149;29;20518;-89
2021/04/05 06:38:23;;;;;;;3.63;1.83;;;1.60;99.90;;;;;;4940663;29;20038;-89
2021/04/05 06:40:52;;;;;;;8.82;1.60;;;1.50;99.90;;;;;;4940728;29;20027;-88
2021/04/05 06:43:36;;;;;;;7.70;1.70;;;1.50;99.90;;;;;;4940838;29;20090;-88
2021/04/05 06:46:22;;;;;;;2.88;1.48;;;1.50;99.90;;;;;;4940754;29;20385;-89
2021/04/05 06:49:27;;;;;;;5.25;1.30;;;1.40;99.90;;;;;;4940364;29;20035;-89
2021/04/05 06:52:07;;;;;;;4.93;1.40;;;1.30;99.90;;;;;;4940299;29;20134;-89
2021/04/05 06:55:26;;;;;;;6.10;1.55;;;1.30;99.90;;;;;;4940599;29;20027;-88
2021/04/05 06:57:57;;;;;;;5.85;1.23;;;1.30;99.90;;;;;;4864534;29;20044;-88
2021/04/05 07:00:52;;;;;;;7.25;1.40;;;1.30;99.90;;;;;;4879677;29;20048;-89
2021/04/05 07:03:45;;;;;;;8.75;2.38;;;1.30;99.90;;;;;;4857647;29;20037;-88
2021/04/05 07:06:11;;;;;;;4.15;1.70;;;1.40;99.90;;;;;;4864294;29;20076;-89
2021/04/05 07:08:49;;;;;;;3.95;1.77;;;1.40;99.90;;;;;;4864230;29;20128;-88
2021/04/05 07:11:38;;;;;;;3.58;1.55;;;1.40;99.90;;;;;;4864132;29;20048;-89
2021/04/05 07:14:31;;;;;;;5.25;1.27;;;1.40;99.90;;;;;;4863694;29;20570;-89
2021/04/05 07:17:16;;;;;;;11.13;2.00;;;1.40;99.90;;;;;;4864748;29;20101;-88
2021/04/05 07:19:44;;;;;;;4.88;1.60;;;1.40;99.90;;;;;;4864024;29;20040;-88
2021/04/05 07:22:28;;;;;;;3.53;1.38;;;1.40;99.90;;;;;;4864215;29;20036;-88
2021/04/05 07:25:06;;;;;;;4.55;1.38;;;1.40;99.80;;;;;;4865426;29;20499;-88
2021/04/05 07:27:47;;;;;;;6.90;1.85;;;1.40;99.30;;;;;;4865220;29;20583;-88
2021/04/05 07:30:24;;;;;;;6.65;1.52;;;1.40;99.00;;;;;;4865615;29;20566;-90
2021/04/05 07:32:52;;;;;;;3.20;1.88;;;1.40;99.00;;;;;;4892282;29;20477;-88
2021/04/05 07:35:22;;;;;;;5.93;1.92;;;1.40;99.10;;;;;;4942521;29;20031;-89
2021/04/05 07:38:01;;;;;;;5.80;1.67;;;1.40;98.60;;;;;;4947527;29;20050;-89
2021/04/05 07:40:44;;;;;;;6.82;2.05;;;1.50;98.70;;;;;;4946558;29;20588;-89
2021/04/05 07:43:20;;;;;;;7.88;1.38;;;1.50;98.30;;;;;;4945372;29;20032;-88
2021/04/05 07:46:16;;;;;;;7.07;1.60;;;1.60;97.80;;;;;;4943441;29;20035;-88
2021/04/05 07:48:51;;;;;;;2.97;1.00;;;1.70;97.00;;;;;;4947721;28;20043;-89
2021/04/05 07:51:35;;;;;;;5.55;1.30;;;1.80;95.90;;;;;;4957801;29;20389;-89
2021/04/05 07:54:06;;;;;;;2.38;1.15;;;1.80;95.20;;;;;;4940791;29;20059;-90
2021/04/05 07:56:35;;;;;;;4.22;1.00;;;1.90;95.00;;;;;;4940711;29;20448;-90
2021/04/05 07:59:23;;;;;;;1.95;1.00;;;2.00;94.90;;;;;;4940869;29;20103;-90
2021/04/05 08:02:15;;;;;;;6.63;1.35;;;2.00;94.40;;;;;;4939593;29;20039;-89
2021/04/05 08:08:45;;;;;;;4.43;1.08;;;2.20;93.00;;;;;;4957692;29;20119;-89
2021/04/05 08:11:36;;;;;;;2.95;1.10;;;2.20;91.40;;;;;;4941117;29;20031;-89
2021/04/05 08:14:10;;;;;;;3.85;0.88;;;2.30;91.10;;;;;;4939819;29;20149;-89
2021/04/05 08:17:01;;;;;;;2.17;1.10;;;2.30;90.70;;;;;;4939997;29;20039;-89
2021/04/05 08:23:34;;;;;;;2.67;0.80;;;2.40;90.10;;;;;;4957715;29;20113;-89
2021/04/05 08:26:32;;;;;;;1.67;1.00;;;2.40;87.90;;;;;;4939881;29;20035;-89
2021/04/05 08:29:22;;;;;;;2.70;1.10;;;2.30;85.60;;;;;;4864861;29;20085;-88
2021/04/05 08:32:22;;;;;;;4.03;1.02;;;2.40;85.80;;;;;;4864189;29;20097;-89
2021/04/05 08:35:12;;;;;;;3.80;0.85;;;2.50;85.40;;;;;;4864127;29;20036;-88
2021/04/05 08:37:50;;;;;;;2.80;0.90;;;2.60;83.70;;;;;;4878974;29;20077;-90
2021/04/05 08:40:38;;;;;;;4.50;1.50;;;2.60;81.50;;;;;;4879302;29;20085;-90
2021/04/05 08:43:14;;;;;;;3.08;0.90;;;2.70;80.90;;;;;;4864281;29;20530;-89
2021/04/05 08:45:48;;;;;;;4.88;0.80;;;2.70;78.30;;;;;;4864048;29;20173;-90
2021/04/05 08:48:17;;;;;;;1.92;0.50;;;2.70;77.10;;;;;;4863904;29;20033;-88
2021/04/05 08:50:49;;;;;;;1.60;0.80;;;2.80;77.00;;;;;;4863084;29;20068;-88
2021/04/05 08:53:15;;;;;;;4.50;0.88;;;2.80;76.60;;;;;;4863231;29;20055;-88
2021/04/05 08:55:42;;;;;;;6.90;1.83;;;2.90;75.80;;;;;;4863518;29;20336;-88
2021/04/05 08:58:19;;;;;;;1.17;0.75;;;3.00;75.90;;;;;;4863479;29;20044;-88
2021/04/05 09:00:48;;;;;;;2.42;0.90;;;3.10;75.90;;;;;;4863128;29;20049;-89
2021/04/05 09:03:21;;;;;;;3.38;0.90;;;3.20;75.40;;;;;;4861328;29;20025;-89
2021/04/05 09:05:48;;;;;;;4.10;1.08;;;3.30;75.40;;;;;;4952638;29;20035;-88
2021/04/05 09:08:16;;;;;;;4.20;0.70;;;3.40;75.00;;;;;;4939078;29;20070;-88
2021/04/05 09:10:46;;;;;;;2.38;0.77;;;3.50;75.10;;;;;;4937557;29;20035;-87
2021/04/05 09:13:45;;;;;;;1.55;0.63;;;3.60;74.30;;;;;;4955525;29;20033;-87
2021/04/05 09:16:32;;;;;;;2.60;1.10;;;3.70;72.80;;;;;;4938777;29;20043;-89
2021/04/05 09:19:11;;;;;;;4.80;0.77;;;3.80;72.00;;;;;;4938547;29;20122;-88
2021/04/05 09:21:46;;;;;;;3.05;0.80;;;3.90;71.70;;;;;;4956003;29;20110;-88
2021/04/05 09:24:50;;;;;;;0.73;0.52;;;4.00;70.40;;;;;;4938407;29;20031;-89
2021/04/05 09:27:36;;;;;;;1.33;0.50;;;4.00;69.60;;;;;;4955482;29;20568;-88
2021/04/05 09:30:05;;;;;;;1.90;0.68;;;4.20;68.60;;;;;;4938447;29;20453;-88
2021/04/05 09:32:46;;;;;;;0.43;0.32;;;4.20;67.50;;;;;;4938477;29;20039;-88
2021/04/05 09:35:44;;;;;;;0.85;0.45;;;4.30;67.40;;;;;;4939144;29;20126;-90
2021/04/05 09:38:16;;;;;;;2.40;0.40;;;4.40;65.90;;;;;;4941995;29;20431;-88
2021/04/05 09:41:00;;;;;;;1.33;0.70;;;4.40;63.50;;;;;;4941669;29;20097;-87
2021/04/05 09:43:42;;;;;;;0.85;0.50;;;4.50;63.50;;;;;;4941849;29;20042;-89
2021/04/05 09:46:45;;;;;;;3.90;0.90;;;4.60;60.60;;;;;;4958963;29;20015;-88
2021/04/05 09:49:46;;;;;;;3.78;1.20;;;4.60;59.50;;;;;;4941443;29;20023;-89
2021/04/05 09:52:30;;;;;;;8.07;0.88;;;4.70;59.00;;;;;;4941522;29;20074;-89
2021/04/05 09:55:10;;;;;;;1.65;0.40;;;4.80;57.80;;;;;;4942549;29;20038;-89
2021/04/05 09:58:15;;;;;;;2.78;0.60;;;4.90;57.00;;;;;;4943283;29;20482;-90
2021/04/05 10:00:48;;;;;;;2.03;0.50;;;5.00;56.50;;;;;;4936597;29;20039;-88
2021/04/05 10:03:17;;;;;;;2.03;0.50;;;5.10;55.80;;;;;;4942625;29;20027;-90
2021/04/05 10:05:44;;;;;;;1.98;0.85;;;5.20;54.10;;;;;;4942692;29;20035;-89
2021/04/05 10:08:27;;;;;;;2.13;0.60;;;5.40;55.00;;;;;;4942067;29;20038;-88
2021/04/05 10:10:56;;;;;;;0.43;0.40;;;5.60;54.90;;;;;;4940667;29;20035;-88
2021/04/05 10:13:27;;;;;;;1.52;0.45;;;5.70;53.50;;;;;;4941183;29;20054;-88
2021/04/05 10:15:56;;;;;;;0.52;0.20;;;5.90;53.80;;;;;;4941302;29;20049;-89
2021/04/05 10:18:23;;;;;;;2.92;0.60;;;6.00;54.00;;;;;;4942923;29;20035;-88
2021/04/05 10:20:51;;;;;;;2.72;1.20;;;6.20;53.60;;;;;;4949737;29;20114;-88
2021/04/05 10:23:29;;;;;;;3.88;1.33;;;6.20;52.70;;;;;;4948149;29;20031;-88
2021/04/05 10:26:01;;;;;;;3.38;0.73;;;6.30;52.90;;;;;;4947023;29;20027;-89
2021/04/05 10:28:32;;;;;;;1.83;0.68;;;6.50;53.30;;;;;;4960558;29;20039;-88
2021/04/05 10:31:03;;;;;;;5.90;0.77;;;6.60;52.40;;;;;;4941609;29;20422;-87
2021/04/05 10:33:32;;;;;;;2.17;0.60;;;6.60;50.90;;;;;;4941363;29;20091;-88
2021/04/05 10:36:03;;;;;;;0.73;0.43;;;6.70;50.40;;;;;;4941485;29;20039;-88
2021/04/05 10:38:29;;;;;;;1.23;0.40;;;6.80;50.40;;;;;;4941575;29;20047;-88
2021/04/05 10:40:56;;;;;;;0.75;0.50;;;6.90;51.00;;;;;;4958028;29;20034;-88
2021/04/05 10:43:33;;;;;;;0.70;0.40;;;7.00;50.80;;;;;;4940851;29;20126;-89
2021/04/05 10:46:12;;;;;;;0.55;0.25;;;7.20;50.70;;;;;;4941583;29;20031;-88
2021/04/05 10:48:58;;;;;;;4.80;0.60;;;7.30;50.90;;;;;;4940130;29;20030;-88
2021/04/05 10:51:26;;;;;;;2.30;1.02;;;7.40;49.90;;;;;;4958071;29;20097;-88
2021/04/05 10:54:30;;;;;;;2.88;0.40;;;7.40;49.00;;;;;;4938826;29;20074;-88
2021/04/05 10:57:02;;;;;;;2.22;0.50;;;7.60;49.80;;;;;;4911762;29;20551;-88
2021/04/05 11:03:01;;;;;;;0.88;0.43;;;7.80;49.50;;;;;;4957684;29;20061;-86
2021/04/05 11:05:35;;;;;;;4.80;0.50;;;7.90;49.40;;;;;;4940357;29;20038;-87
2021/04/05 11:08:04;;;;;;;0.55;0.40;;;8.00;48.70;;;;;;4940219;29;20516;-88
2021/04/05 11:10:32;;;;;;;1.67;0.50;;;8.20;48.40;;;;;;4941232;29;20437;-89
2021/04/05 11:13:05;;;;;;;1.38;0.38;;;8.30;47.90;;;;;;4941801;29;20123;-88
2021/04/05 11:15:31;;;;;;;1.88;0.47;;;8.50;48.10;;;;;;4941656;29;20357;-89
2021/04/05 11:18:02;;;;;;;1.30;0.50;;;8.70;47.50;;;;;;4941518;29;20027;-89
2021/04/05 11:20:33;;;;;;;1.45;0.50;;;8.80;47.00;;;;;;4941598;29;20042;-89
2021/04/05 11:23:05;;;;;;;1.90;0.65;;;8.90;46.70;;;;;;4958192;29;20073;-88
2021/04/05 11:25:35;;;;;;;0.75;0.40;;;9.00;47.00;;;;;;4958326;29;20081;-87
2021/04/05 11:28:07;;;;;;;1.90;0.60;;;9.10;46.50;;;;;;4941002;29;20036;-89
2021/04/05 11:30:35;;;;;;;0.63;0.60;;;9.20;46.60;;;;;;4941008;29;20031;-89
2021/04/05 11:33:02;;;;;;;1.17;0.40;;;9.20;46.10;;;;;;4958073;29;20027;-87
2021/04/05 11:35:33;;;;;;;1.08;0.40;;;9.20;46.60;;;;;;4940812;29;20105;-88
2021/04/05 11:38:10;;;;;;;0.28;0.28;;;9.20;46.70;;;;;;4958010;29;20019;-89
2021/04/05 11:40:36;;;;;;;2.03;0.70;;;9.20;46.90;;;;;;4956907;29;20031;-89
2021/04/05 11:43:10;;;;;;;2.63;0.80;;;9.20;46.90;;;;;;4957074;29;20023;-88
2021/04/05 11:46:04;;;;;;;0.85;0.30;;;9.20;47.00;;;;;;4956760;29;20031;-87
2021/04/05 11:48:30;;;;;;;1.63;0.50;;;9.40;46.80;;;;;;4939791;29;20019;-89
2021/04/05 11:50:56;;;;;;;1.35;0.30;;;9.70;46.30;;;;;;4956741;29;20035;-89
2021/04/05 11:53:55;;;;;;;1.27;0.35;;;9.70;44.60;;;;;;4956768;29;20038;-89
2021/04/05 11:56:26;;;;;;;0.47;0.30;;;9.70;44.60;;;;;;4939566;29;20027;-90
2021/04/05 11:59:18;;;;;;;1.75;0.50;;;9.90;44.40;;;;;;4956724;28;20027;-89
2021/04/05 12:01:54;;;;;;;1.73;0.63;;;10.10;44.80;;;;;;4939624;29;20039;-90
2021/04/05 12:04:25;;;;;;;0.52;0.32;;;10.10;44.50;;;;;;4939706;29;20094;-89
2021/04/05 12:07:05;;;;;;;0.68;0.30;;;9.90;45.10;;;;;;4956665;29;20121;-90
2021/04/05 12:09:52;;;;;;;1.55;0.38;;;9.80;44.70;;;;;;4938459;29;20035;-90
2021/04/05 12:12:32;;;;;;;2.20;0.40;;;9.50;44.70;;;;;;4956194;29;20062;-91
2021/04/05 12:15:01;;;;;;;0.73;0.35;;;9.40;45.20;;;;;;4956214;29;20493;-89
2021/04/05 12:17:27;;;;;;;3.30;0.40;;;9.40;45.20;;;;;;4956451;29;20035;-88
2021/04/05 12:19:55;;;;;;;2.05;0.50;;;9.50;45.60;;;;;;4956353;29;20525;-89
2021/04/05 12:22:28;;;;;;;1.98;0.40;;;9.50;45.10;;;;;;4939250;29;20027;-89
2021/04/05 12:24:55;;;;;;;3.13;0.55;;;9.60;45.10;;;;;;4939119;29;20028;-90
2021/04/05 12:27:31;;;;;;;1.50;0.40;;;9.70;44.40;;;;;;4956013;29;20041;-88
2021/04/05 12:29:57;;;;;;;1.17;0.52;;;9.80;44.40;;;;;;4939306;29;20038;-87
2021/04/05 12:32:24;;;;;;;1.10;0.50;;;9.90;45.40;;;;;;4939003;29;20126;-89
2021/04/05 12:34:55;;;;;;;0.90;0.40;;;10.20;45.20;;;;;;4956243;29;20085;-88
2021/04/05 12:37:23;;;;;;;0.65;0.40;;;10.60;44.10;;;;;;4939089;29;20038;-89
2021/04/05 12:40:00;;;;;;;0.98;0.73;;;10.70;43.40;;;;;;4955958;29;20034;-90
2021/04/05 12:42:36;;;;;;;1.75;0.40;;;10.80;43.60;;;;;;4938995;29;20031;-89
2021/04/05 12:45:04;;;;;;;0.63;0.50;;;10.80;43.10;;;;;;4956005;29;20503;-89
2021/04/05 12:47:33;;;;;;;4.68;0.40;;;10.50;42.90;;;;;;4955814;29;20121;-89
2021/04/05 12:50:08;;;;;;;0.68;0.30;;;10.20;43.30;;;;;;4939101;29;20078;-89
2021/04/05 12:52:38;;;;;;;0.98;0.55;;;10.10;43.50;;;;;;4956161;29;20499;-90
2021/04/05 12:55:12;;;;;;;0.98;0.40;;;10.00;43.50;;;;;;4939905;29;20038;-90
2021/04/05 12:57:38;;;;;;;3.80;0.40;;;10.20;43.70;;;;;;4956237;29;20118;-90
2021/04/05 13:00:31;;;;;;;2.38;0.50;;;10.60;44.20;;;;;;4956710;29;20129;-89
2021/04/05 13:03:21;;;;;;;1.38;0.38;;;10.60;43.40;;;;;;4955503;29;20264;-89
2021/04/05 13:05:58;;;;;;;0.38;0.32;;;10.50;43.00;;;;;;4947450;29;20043;-90
2021/04/05 13:09:03;;;;;;;1.35;0.68;;;10.10;43.10;;;;;;4963255;29;20031;-90
2021/04/05 13:11:43;;;;;;;1.88;0.35;;;9.60;42.40;;;;;;4884235;29;20040;-90
2021/04/05 13:14:15;;;;;;;0.40;0.40;;;9.50;43.40;;;;;;4885872;29;20045;-90
2021/04/05 13:17:24;;;;;;;3.10;0.77;;;9.50;43.90;;;;;;4884051;29;20041;-87
2021/04/05 13:19:53;;;;;;;1.52;0.60;;;9.50;43.00;;;;;;4865273;29;20458;-89
2021/04/05 13:22:22;;;;;;;1.95;0.40;;;9.60;43.00;;;;;;4882663;29;20025;-88
2021/04/05 13:24:56;;;;;;;1.20;0.40;;;9.70;42.90;;;;;;4882765;29;20051;-90
2021/04/05 13:27:27;;;;;;;3.58;0.70;;;9.80;43.00;;;;;;4882705;29;20033;-90
2021/04/05 13:29:56;;;;;;;1.83;0.47;;;10.00;43.20;;;;;;4866927;29;20036;-89
2021/04/05 13:32:51;;;;;;;3.97;1.02;;;10.30;43.10;;;;;;4882304;29;20048;-90
2021/04/05 13:35:22;;;;;;;2.20;0.30;;;10.60;42.70;;;;;;4882753;29;20447;-90
2021/04/05 13:37:53;;;;;;;1.33;0.40;;;11.10;43.20;;;;;;4866516;29;20029;-89
2021/04/05 13:40:24;;;;;;;2.10;0.50;;;11.30;42.40;;;;;;4866409;29;20044;-90